sensor_id;sensor_type;location;lat;lon;timestamp;pressure;altitude;pressure_sealevel;temperature;humidity
9257;BME280;4665;51.368;6.782;2023-06-19T00:02:14;100538.69;;;22.54;100.00
9257;BME280;4665;51.368;6.782;2023-06-19T00:04:40;100540.81;;;22.52;100.00
9257;BME280;4665;51.368;6.782;2023-06-19T00:07:06;100546.94;;;22.47;100.00
9257;BME280;4665;51.368;6.782;2023-06-19T00:09:32;100551.19;;;22.43;100.00
9257;BME280;4665;51.368;6.782;2023-06-19T00:11:58;100544.03;;;22.37;100.00
9257;BME280;4665;51.368;6.782;2023-06-19T00:14:25;100550.16;;;22.33;100.00
9257;BME280;4665;51.368;6.782;2023-06-19T00:16:50;100549.00;;;22.29;100.00
9257;BME280;4665;51.368;6.782;2023-06-19T00:19:16;100547.22;;;22.22;100.00
9257;BME280;4665;51.368;6.782;2023-06-19T00:21:43;100553.09;;;22.19;100.00
9257;BME280;4665;51.368;6.782;2023-06-19T00:24:09;100538.13;;;22.17;100.00
9257;BME280;4665;51.368;6.782;2023-06-19T00:26:34;100541.44;;;22.07;100.00
9257;BME280;4665;51.368;6.782;2023-06-19T00:29:00;100548.84;;;22.00;100.00
9257;BME280;4665;51.368;6.782;2023-06-19T00:31:25;100547.41;;;21.97;100.00
9257;BME280;4665;51.368;6.782;2023-06-19T00:33:53;100548.38;;;21.91;100.00
9257;BME280;4665;51.368;6.782;2023-06-19T00:36:18;100552.41;;;21.89;100.00
9257;BME280;4665;51.368;6.782;2023-06-19T00:38:46;100556.03;;;21.82;100.00
9257;BME280;4665;51.368;6.782;2023-06-19T00:41:13;100561.47;;;21.82;100.00
9257;BME280;4665;51.368;6.782;2023-06-19T00:43:40;100565.47;;;21.80;100.00
9257;BME280;4665;51.368;6.782;2023-06-19T00:46:05;100568.63;;;21.77;100.00
9257;BME280;4665;51.368;6.782;2023-06-19T00:48:32;100564.97;;;21.71;100.00
9257;BME280;4665;51.368;6.782;2023-06-19T00:50:59;100572.97;;;21.66;100.00
9257;BME280;4665;51.368;6.782;2023-06-19T00:53:25;100573.31;;;21.58;100.00
9257;BME280;4665;51.368;6.782;2023-06-19T00:55:53;100567.75;;;21.53;100.00
9257;BME280;4665;51.368;6.782;2023-06-19T00:58:20;100577.78;;;21.52;100.00
9257;BME280;4665;51.368;6.782;2023-06-19T01:00:45;100571.38;;;21.47;100.00
9257;BME280;4665;51.368;6.782;2023-06-19T01:03:11;100571.16;;;21.48;100.00
9257;BME280;4665;51.368;6.782;2023-06-19T01:05:36;100580.59;;;21.46;100.00
9257;BME280;4665;51.368;6.782;2023-06-19T01:10:58;100589.84;;;21.38;100.00
9257;BME280;4665;51.368;6.782;2023-06-19T01:13:37;100580.53;;;21.34;100.00
9257;BME280;4665;51.368;6.782;2023-06-19T01:16:06;100587.22;;;21.31;100.00
9257;BME280;4665;51.368;6.782;2023-06-19T01:18:32;100593.25;;;21.33;100.00
9257;BME280;4665;51.368;6.782;2023-06-19T01:21:11;100580.13;;;21.30;100.00
9257;BME280;4665;51.368;6.782;2023-06-19T01:23:37;100587.44;;;21.30;100.00
9257;BME280;4665;51.368;6.782;2023-06-19T01:26:02;100576.47;;;21.25;100.00
9257;BME280;4665;51.368;6.782;2023-06-19T01:28:28;100582.38;;;21.21;100.00
9257;BME280;4665;51.368;6.782;2023-06-19T01:30:55;100577.88;;;21.15;100.00
9257;BME280;4665;51.368;6.782;2023-06-19T01:33:27;100586.22;;;21.14;100.00
9257;BME280;4665;51.368;6.782;2023-06-19T01:35:55;100574.88;;;21.05;100.00
9257;BME280;4665;51.368;6.782;2023-06-19T01:38:23;100570.50;;;21.04;100.00
9257;BME280;4665;51.368;6.782;2023-06-19T01:40:52;100573.91;;;20.99;100.00
9257;BME280;4665;51.368;6.782;2023-06-19T01:43:19;100575.88;;;20.92;100.00
9257;BME280;4665;51.368;6.782;2023-06-19T01:45:44;100573.84;;;20.88;100.00
9257;BME280;4665;51.368;6.782;2023-06-19T01:48:10;100565.38;;;20.84;100.00
9257;BME280;4665;51.368;6.782;2023-06-19T01:50:36;100568.75;;;20.79;100.00
9257;BME280;4665;51.368;6.782;2023-06-19T01:53:01;100568.00;;;20.72;100.00
9257;BME280;4665;51.368;6.782;2023-06-19T01:55:27;100574.06;;;20.68;100.00
9257;BME280;4665;51.368;6.782;2023-06-19T01:57:52;100573.13;;;20.62;100.00
9257;BME280;4665;51.368;6.782;2023-06-19T02:00:18;100585.88;;;20.55;100.00
9257;BME280;4665;51.368;6.782;2023-06-19T02:02:44;100594.06;;;20.48;100.00
9257;BME280;4665;51.368;6.782;2023-06-19T02:05:09;100597.22;;;20.45;100.00
9257;BME280;4665;51.368;6.782;2023-06-19T02:07:35;100592.47;;;20.41;100.00
9257;BME280;4665;51.368;6.782;2023-06-19T02:10:00;100598.72;;;20.41;100.00
9257;BME280;4665;51.368;6.782;2023-06-19T02:12:26;100600.59;;;20.41;100.00
9257;BME280;4665;51.368;6.782;2023-06-19T02:14:51;100603.28;;;20.41;100.00
9257;BME280;4665;51.368;6.782;2023-06-19T02:17:17;100602.09;;;20.36;100.00
9257;BME280;4665;51.368;6.782;2023-06-19T02:19:42;100606.66;;;20.36;100.00
9257;BME280;4665;51.368;6.782;2023-06-19T02:22:08;100613.72;;;20.37;100.00
9257;BME280;4665;51.368;6.782;2023-06-19T02:24:34;100620.19;;;20.36;100.00
9257;BME280;4665;51.368;6.782;2023-06-19T02:26:59;100626.88;;;20.33;100.00
9257;BME280;4665;51.368;6.782;2023-06-19T02:29:25;100623.56;;;20.31;100.00
9257;BME280;4665;51.368;6.782;2023-06-19T02:31:51;100637.25;;;20.36;100.00
9257;BME280;4665;51.368;6.782;2023-06-19T02:34:17;100630.41;;;20.34;100.00
9257;BME280;4665;51.368;6.782;2023-06-19T02:36:42;100640.34;;;20.40;100.00
9257;BME280;4665;51.368;6.782;2023-06-19T02:39:08;100648.22;;;20.42;100.00
9257;BME280;4665;51.368;6.782;2023-06-19T02:41:34;100651.75;;;20.42;100.00
9257;BME280;4665;51.368;6.782;2023-06-19T02:44:01;100655.66;;;20.46;100.00
9257;BME280;4665;51.368;6.782;2023-06-19T02:46:26;100661.69;;;20.48;100.00
9257;BME280;4665;51.368;6.782;2023-06-19T02:48:52;100673.94;;;20.51;100.00
9257;BME280;4665;51.368;6.782;2023-06-19T02:51:17;100670.19;;;20.52;100.00
9257;BME280;4665;51.368;6.782;2023-06-19T02:53:43;100670.19;;;20.52;100.00
9257;BME280;4665;51.368;6.782;2023-06-19T02:56:09;100674.72;;;20.58;100.00
9257;BME280;4665;51.368;6.782;2023-06-19T02:58:41;100672.19;;;20.63;100.00
9257;BME280;4665;51.368;6.782;2023-06-19T03:01:06;100681.66;;;20.72;100.00
9257;BME280;4665;51.368;6.782;2023-06-19T03:03:33;100690.19;;;20.76;100.00
9257;BME280;4665;51.368;6.782;2023-06-19T03:06:06;100675.75;;;20.82;100.00
9257;BME280;4665;51.368;6.782;2023-06-19T03:08:35;100680.09;;;20.83;100.00
9257;BME280;4665;51.368;6.782;2023-06-19T03:11:01;100689.91;;;20.84;100.00
9257;BME280;4665;51.368;6.782;2023-06-19T03:13:44;100689.03;;;20.84;100.00
9257;BME280;4665;51.368;6.782;2023-06-19T03:16:10;100689.28;;;20.82;100.00
9257;BME280;4665;51.368;6.782;2023-06-19T03:18:35;100688.69;;;20.80;100.00
9257;BME280;4665;51.368;6.782;2023-06-19T03:21:01;100684.31;;;20.79;100.00
9257;BME280;4665;51.368;6.782;2023-06-19T03:23:26;100689.72;;;20.79;100.00
9257;BME280;4665;51.368;6.782;2023-06-19T03:25:52;100690.38;;;20.74;100.00
9257;BME280;4665;51.368;6.782;2023-06-19T03:28:17;100693.69;;;20.76;100.00
9257;BME280;4665;51.368;6.782;2023-06-19T03:30:43;100688.75;;;20.73;100.00
9257;BME280;4665;51.368;6.782;2023-06-19T03:33:08;100696.66;;;20.75;100.00
9257;BME280;4665;51.368;6.782;2023-06-19T03:35:33;100699.19;;;20.70;100.00
9257;BME280;4665;51.368;6.782;2023-06-19T03:37:59;100715.22;;;20.71;100.00
9257;BME280;4665;51.368;6.782;2023-06-19T03:40:24;100714.59;;;20.69;100.00
9257;BME280;4665;51.368;6.782;2023-06-19T03:42:50;100720.47;;;20.66;100.00
9257;BME280;4665;51.368;6.782;2023-06-19T03:45:15;100725.06;;;20.66;100.00
9257;BME280;4665;51.368;6.782;2023-06-19T03:47:41;100724.50;;;20.57;100.00
9257;BME280;4665;51.368;6.782;2023-06-19T03:50:07;100733.66;;;20.56;100.00
9257;BME280;4665;51.368;6.782;2023-06-19T03:52:36;100747.59;;;20.53;100.00
9257;BME280;4665;51.368;6.782;2023-06-19T03:55:03;100748.25;;;20.48;100.00
9257;BME280;4665;51.368;6.782;2023-06-19T03:57:29;100754.34;;;20.44;100.00
9257;BME280;4665;51.368;6.782;2023-06-19T03:59:56;100752.28;;;20.39;100.00
9257;BME280;4665;51.368;6.782;2023-06-19T04:02:21;100760.84;;;20.36;100.00
9257;BME280;4665;51.368;6.782;2023-06-19T04:04:47;100764.84;;;20.33;100.00
9257;BME280;4665;51.368;6.782;2023-06-19T04:07:13;100766.09;;;20.31;100.00
9257;BME280;4665;51.368;6.782;2023-06-19T04:09:39;100774.25;;;20.24;100.00
9257;BME280;4665;51.368;6.782;2023-06-19T04:12:04;100785.72;;;20.20;100.00
9257;BME280;4665;51.368;6.782;2023-06-19T04:14:30;100783.88;;;20.13;100.00
9257;BME280;4665;51.368;6.782;2023-06-19T04:16:55;100798.06;;;20.09;100.00
9257;BME280;4665;51.368;6.782;2023-06-19T04:19:21;100797.84;;;20.10;100.00
9257;BME280;4665;51.368;6.782;2023-06-19T04:21:46;100797.69;;;20.05;100.00
9257;BME280;4665;51.368;6.782;2023-06-19T04:24:12;100802.03;;;20.06;100.00
9257;BME280;4665;51.368;6.782;2023-06-19T04:26:37;100800.78;;;20.02;100.00
9257;BME280;4665;51.368;6.782;2023-06-19T04:29:03;100807.03;;;20.03;100.00
9257;BME280;4665;51.368;6.782;2023-06-19T04:31:29;100807.88;;;20.03;100.00
9257;BME280;4665;51.368;6.782;2023-06-19T04:33:55;100802.88;;;20.00;100.00
9257;BME280;4665;51.368;6.782;2023-06-19T04:36:22;100809.72;;;20.03;100.00
9257;BME280;4665;51.368;6.782;2023-06-19T04:38:48;100813.09;;;19.98;100.00
9257;BME280;4665;51.368;6.782;2023-06-19T04:41:13;100815.41;;;19.94;100.00
9257;BME280;4665;51.368;6.782;2023-06-19T04:43:39;100810.66;;;19.90;100.00
9257;BME280;4665;51.368;6.782;2023-06-19T04:46:07;100809.19;;;19.87;100.00
9257;BME280;4665;51.368;6.782;2023-06-19T04:48:32;100813.38;;;19.83;100.00
9257;BME280;4665;51.368;6.782;2023-06-19T04:51:02;100814.81;;;19.86;100.00
9257;BME280;4665;51.368;6.782;2023-06-19T04:53:28;100818.97;;;19.82;100.00
9257;BME280;4665;51.368;6.782;2023-06-19T04:55:54;100828.94;;;19.88;100.00
9257;BME280;4665;51.368;6.782;2023-06-19T04:58:23;100830.84;;;19.81;100.00
9257;BME280;4665;51.368;6.782;2023-06-19T05:00:48;100828.38;;;19.72;100.00
9257;BME280;4665;51.368;6.782;2023-06-19T05:03:17;100831.28;;;19.78;100.00
9257;BME280;4665;51.368;6.782;2023-06-19T05:05:43;100828.59;;;19.78;100.00
9257;BME280;4665;51.368;6.782;2023-06-19T05:08:09;100830.22;;;19.79;100.00
9257;BME280;4665;51.368;6.782;2023-06-19T05:10:35;100836.69;;;19.84;100.00
9257;BME280;4665;51.368;6.782;2023-06-19T05:13:16;100837.69;;;19.90;100.00
9257;BME280;4665;51.368;6.782;2023-06-19T05:15:43;100845.34;;;19.93;100.00
9257;BME280;4665;51.368;6.782;2023-06-19T05:18:09;100846.16;;;19.93;100.00
9257;BME280;4665;51.368;6.782;2023-06-19T05:20:34;100856.97;;;20.00;100.00
9257;BME280;4665;51.368;6.782;2023-06-19T05:22:59;100850.09;;;20.04;100.00
9257;BME280;4665;51.368;6.782;2023-06-19T05:25:25;100844.69;;;20.04;100.00
9257;BME280;4665;51.368;6.782;2023-06-19T05:27:50;100850.69;;;20.06;100.00
9257;BME280;4665;51.368;6.782;2023-06-19T05:30:16;100859.63;;;20.07;100.00
9257;BME280;4665;51.368;6.782;2023-06-19T05:32:41;100859.88;;;20.05;100.00
9257;BME280;4665;51.368;6.782;2023-06-19T05:35:07;100851.75;;;20.05;100.00
9257;BME280;4665;51.368;6.782;2023-06-19T05:37:33;100846.28;;;20.12;100.00
9257;BME280;4665;51.368;6.782;2023-06-19T05:39:58;100842.75;;;20.11;100.00
9257;BME280;4665;51.368;6.782;2023-06-19T05:42:24;100851.50;;;20.13;100.00
9257;BME280;4665;51.368;6.782;2023-06-19T05:44:50;100853.34;;;20.20;100.00
9257;BME280;4665;51.368;6.782;2023-06-19T05:47:16;100859.53;;;20.27;100.00
9257;BME280;4665;51.368;6.782;2023-06-19T05:49:44;100865.97;;;20.26;100.00
9257;BME280;4665;51.368;6.782;2023-06-19T05:52:10;100859.97;;;20.24;100.00
9257;BME280;4665;51.368;6.782;2023-06-19T05:54:35;100869.75;;;20.25;100.00
9257;BME280;4665;51.368;6.782;2023-06-19T05:57:00;100861.63;;;20.25;100.00
9257;BME280;4665;51.368;6.782;2023-06-19T05:59:26;100869.53;;;20.26;100.00
9257;BME280;4665;51.368;6.782;2023-06-19T06:01:51;100862.28;;;20.20;100.00
9257;BME280;4665;51.368;6.782;2023-06-19T06:04:18;100870.59;;;20.18;100.00
9257;BME280;4665;51.368;6.782;2023-06-19T06:06:47;100877.69;;;20.20;100.00
9257;BME280;4665;51.368;6.782;2023-06-19T06:09:12;100877.44;;;20.21;100.00
9257;BME280;4665;51.368;6.782;2023-06-19T06:11:38;100874.53;;;20.23;100.00
9257;BME280;4665;51.368;6.782;2023-06-19T06:14:03;100878.88;;;20.24;100.00
9257;BME280;4665;51.368;6.782;2023-06-19T06:16:29;100880.16;;;20.21;100.00
9257;BME280;4665;51.368;6.782;2023-06-19T06:18:54;100886.41;;;20.22;100.00
9257;BME280;4665;51.368;6.782;2023-06-19T06:21:20;100895.56;;;20.21;100.00
9257;BME280;4665;51.368;6.782;2023-06-19T06:23:45;100890.19;;;20.14;100.00
9257;BME280;4665;51.368;6.782;2023-06-19T06:26:13;100886.84;;;20.12;100.00
9257;BME280;4665;51.368;6.782;2023-06-19T06:28:39;100893.53;;;20.09;100.00
9257;BME280;4665;51.368;6.782;2023-06-19T06:31:04;100891.06;;;20.08;100.00
9257;BME280;4665;51.368;6.782;2023-06-19T06:33:30;100891.47;;;20.05;100.00
9257;BME280;4665;51.368;6.782;2023-06-19T06:36:28;100893.53;;;20.09;100.00
9257;BME280;4665;51.368;6.782;2023-06-19T06:38:53;100891.06;;;20.08;100.00
9257;BME280;4665;51.368;6.782;2023-06-19T06:41:21;100890.63;;;20.04;100.00
9257;BME280;4665;51.368;6.782;2023-06-19T06:43:47;100896.03;;;20.04;100.00
9257;BME280;4665;51.368;6.782;2023-06-19T06:46:12;100907.91;;;20.03;100.00
9257;BME280;4665;51.368;6.782;2023-06-19T06:48:38;100905.22;;;20.03;100.00
9257;BME280;4665;51.368;6.782;2023-06-19T06:51:40;100913.53;;;20.02;100.00
9257;BME280;4665;51.368;6.782;2023-06-19T06:54:05;100913.31;;;20.03;100.00
9257;BME280;4665;51.368;6.782;2023-06-19T06:56:30;100917.25;;;20.07;100.00
9257;BME280;4665;51.368;6.782;2023-06-19T06:58:57;100917.03;;;20.09;100.00
9257;BME280;4665;51.368;6.782;2023-06-19T07:01:22;100923.28;;;20.09;100.00
9257;BME280;4665;51.368;6.782;2023-06-19T07:07:15;100941.63;;;19.94;100.00
9257;BME280;4665;51.368;6.782;2023-06-19T07:09:40;100939.97;;;19.93;100.00
9257;BME280;4665;51.368;6.782;2023-06-19T07:12:06;100955.16;;;19.87;100.00
9257;BME280;4665;51.368;6.782;2023-06-19T07:14:32;100951.44;;;19.82;100.00
9257;BME280;4665;51.368;6.782;2023-06-19T07:16:58;100958.09;;;19.79;100.00
9257;BME280;4665;51.368;6.782;2023-06-19T07:19:23;100954.34;;;19.80;100.00
9257;BME280;4665;51.368;6.782;2023-06-19T07:21:52;100958.31;;;19.84;100.00
9257;BME280;4665;51.368;6.782;2023-06-19T07:24:17;100962.47;;;19.87;100.00
9257;BME280;4665;51.368;6.782;2023-06-19T07:26:56;100965.34;;;19.92;100.00
9257;BME280;4665;51.368;6.782;2023-06-19T07:29:22;100957.25;;;19.92;100.00
9257;BME280;4665;51.368;6.782;2023-06-19T07:31:47;100967.41;;;19.96;100.00
9257;BME280;4665;51.368;6.782;2023-06-19T07:34:13;100957.63;;;20.02;100.00
9257;BME280;4665;51.368;6.782;2023-06-19T07:36:45;100959.28;;;20.03;100.00
9257;BME280;4665;51.368;6.782;2023-06-19T07:39:10;100952.38;;;20.07;100.00
9257;BME280;4665;51.368;6.782;2023-06-19T07:42:08;100961.34;;;20.14;100.00
9257;BME280;4665;51.368;6.782;2023-06-19T07:44:33;100966.75;;;20.14;100.00
9257;BME280;4665;51.368;6.782;2023-06-19T07:47:00;100959.88;;;20.12;100.00
9257;BME280;4665;51.368;6.782;2023-06-19T07:49:25;100980.13;;;19.96;100.00
9257;BME280;4665;51.368;6.782;2023-06-19T07:52:08;100971.59;;;19.79;100.00
9257;BME280;4665;51.368;6.782;2023-06-19T07:54:56;100990.75;;;19.71;100.00
9257;BME280;4665;51.368;6.782;2023-06-19T07:57:23;100986.78;;;19.67;100.00
9257;BME280;4665;51.368;6.782;2023-06-19T07:59:55;100992.00;;;19.68;100.00
9257;BME280;4665;51.368;6.782;2023-06-19T08:02:20;100988.41;;;19.68;100.00
9257;BME280;4665;51.368;6.782;2023-06-19T08:04:51;100987.00;;;19.72;100.00
9257;BME280;4665;51.368;6.782;2023-06-19T08:07:16;100985.97;;;19.73;100.00
9257;BME280;4665;51.368;6.782;2023-06-19T08:09:42;100984.28;;;19.72;100.00
9257;BME280;4665;51.368;6.782;2023-06-19T08:12:35;100976.38;;;19.77;100.00
9257;BME280;4665;51.368;6.782;2023-06-19T08:15:01;100975.34;;;19.91;100.00
9257;BME280;4665;51.368;6.782;2023-06-19T08:17:26;100970.28;;;20.08;100.00
9257;BME280;4665;51.368;6.782;2023-06-19T08:19:52;100969.00;;;20.24;100.00
9257;BME280;4665;51.368;6.782;2023-06-19T08:22:17;100966.19;;;20.44;100.00
9257;BME280;4665;51.368;6.782;2023-06-19T08:24:42;100958.88;;;20.51;100.00
9257;BME280;4665;51.368;6.782;2023-06-19T08:27:08;100956.13;;;20.65;100.00
9257;BME280;4665;51.368;6.782;2023-06-19T08:29:33;100959.41;;;20.73;100.00
9257;BME280;4665;51.368;6.782;2023-06-19T08:31:59;100960.03;;;20.75;100.00
9257;BME280;4665;51.368;6.782;2023-06-19T08:34:25;100962.88;;;20.87;100.00
9257;BME280;4665;51.368;6.782;2023-06-19T08:36:51;100958.84;;;20.96;100.00
9257;BME280;4665;51.368;6.782;2023-06-19T08:39:16;100961.78;;;20.95;100.00
9257;BME280;4665;51.368;6.782;2023-06-19T08:41:42;100957.97;;;21.02;100.00
9257;BME280;4665;51.368;6.782;2023-06-19T08:44:08;100961.69;;;21.08;100.00
9257;BME280;4665;51.368;6.782;2023-06-19T08:46:35;100959.34;;;21.12;100.00
9257;BME280;4665;51.368;6.782;2023-06-19T08:49:04;100961.03;;;21.13;100.00
9257;BME280;4665;51.368;6.782;2023-06-19T08:51:31;100966.66;;;21.11;100.00
9257;BME280;4665;51.368;6.782;2023-06-19T08:54:02;100957.88;;;21.16;100.00
9257;BME280;4665;51.368;6.782;2023-06-19T08:56:29;100968.66;;;21.22;100.00
9257;BME280;4665;51.368;6.782;2023-06-19T08:59:07;100971.16;;;21.24;100.00
9257;BME280;4665;51.368;6.782;2023-06-19T09:01:33;100963.63;;;21.26;100.00
9257;BME280;4665;51.368;6.782;2023-06-19T09:04:00;100970.63;;;21.40;100.00
9257;BME280;4665;51.368;6.782;2023-06-19T09:06:32;100972.00;;;21.50;100.00
9257;BME280;4665;51.368;6.782;2023-06-19T09:08:59;100962.59;;;21.52;100.00
9257;BME280;4665;51.368;6.782;2023-06-19T09:11:25;100966.28;;;21.58;100.00
9257;BME280;4665;51.368;6.782;2023-06-19T09:13:56;100974.38;;;21.64;100.00
9257;BME280;4665;51.368;6.782;2023-06-19T09:16:22;100963.09;;;21.68;100.00
9257;BME280;4665;51.368;6.782;2023-06-19T09:18:49;100961.97;;;21.75;100.00
9257;BME280;4665;51.368;6.782;2023-06-19T09:21:17;100961.84;;;21.89;100.00
9257;BME280;4665;51.368;6.782;2023-06-19T09:23:47;100966.59;;;21.93;100.00
9257;BME280;4665;51.368;6.782;2023-06-19T09:26:17;100976.66;;;22.04;100.00
9257;BME280;4665;51.368;6.782;2023-06-19T09:28:44;100971.84;;;22.06;100.00
9257;BME280;4665;51.368;6.782;2023-06-19T09:31:11;100967.41;;;22.12;100.00
9257;BME280;4665;51.368;6.782;2023-06-19T09:33:38;100956.41;;;22.25;100.00
9257;BME280;4665;51.368;6.782;2023-06-19T09:36:05;100969.22;;;22.37;100.00
9257;BME280;4665;51.368;6.782;2023-06-19T09:38:33;100968.38;;;22.36;100.00
9257;BME280;4665;51.368;6.782;2023-06-19T09:41:15;100976.00;;;22.27;100.00
9257;BME280;4665;51.368;6.782;2023-06-19T09:43:42;100973.91;;;22.30;100.00
9257;BME280;4665;51.368;6.782;2023-06-19T09:46:09;100977.22;;;22.32;100.00
9257;BME280;4665;51.368;6.782;2023-06-19T09:48:41;100975.22;;;22.20;100.00
9257;BME280;4665;51.368;6.782;2023-06-19T09:51:13;100981.13;;;22.17;100.00
9257;BME280;4665;51.368;6.782;2023-06-19T09:53:44;100986.53;;;22.17;100.00
9257;BME280;4665;51.368;6.782;2023-06-19T09:56:11;100984.88;;;22.35;100.00
9257;BME280;4665;51.368;6.782;2023-06-19T09:58:38;100987.56;;;22.53;100.00
9257;BME280;4665;51.368;6.782;2023-06-19T10:01:05;100996.28;;;22.74;100.00
9257;BME280;4665;51.368;6.782;2023-06-19T10:03:32;100990.94;;;22.97;100.00
9257;BME280;4665;51.368;6.782;2023-06-19T10:06:02;101003.31;;;23.12;100.00
9257;BME280;4665;51.368;6.782;2023-06-19T10:08:39;100982.97;;;23.02;100.00
9257;BME280;4665;51.368;6.782;2023-06-19T10:11:04;100991.38;;;23.13;100.00
9257;BME280;4665;51.368;6.782;2023-06-19T10:13:35;100999.66;;;23.18;100.00
9257;BME280;4665;51.368;6.782;2023-06-19T10:16:03;100991.84;;;23.09;100.00
9257;BME280;4665;51.368;6.782;2023-06-19T10:18:31;101007.56;;;23.19;100.00
9257;BME280;4665;51.368;6.782;2023-06-19T10:20:57;100991.63;;;23.23;100.00
9257;BME280;4665;51.368;6.782;2023-06-19T10:23:25;101002.25;;;23.24;100.00
9257;BME280;4665;51.368;6.782;2023-06-19T10:25:55;101001.06;;;23.20;100.00
9257;BME280;4665;51.368;6.782;2023-06-19T10:28:27;100996.34;;;23.27;100.00
9257;BME280;4665;51.368;6.782;2023-06-19T10:33:21;100999.13;;;23.63;100.00
9257;BME280;4665;51.368;6.782;2023-06-19T10:35:46;100983.97;;;23.67;100.00
9257;BME280;4665;51.368;6.782;2023-06-19T10:38:15;100991.69;;;23.70;100.00
9257;BME280;4665;51.368;6.782;2023-06-19T10:40:40;100985.97;;;23.71;100.00
9257;BME280;4665;51.368;6.782;2023-06-19T10:43:06;100986.97;;;23.77;100.00
9257;BME280;4665;51.368;6.782;2023-06-19T10:45:32;100985.78;;;23.85;100.00
9257;BME280;4665;51.368;6.782;2023-06-19T10:48:00;100981.28;;;23.79;100.00
9257;BME280;4665;51.368;6.782;2023-06-19T10:50:26;100982.47;;;23.83;100.00
9257;BME280;4665;51.368;6.782;2023-06-19T10:52:53;100986.13;;;24.00;100.00
9257;BME280;4665;51.368;6.782;2023-06-19T10:55:20;100965.28;;;24.06;100.00
9257;BME280;4665;51.368;6.782;2023-06-19T10:57:47;100982.22;;;23.96;100.00
9257;BME280;4665;51.368;6.782;2023-06-19T11:00:28;100983.53;;;23.82;100.00
9257;BME280;4665;51.368;6.782;2023-06-19T11:02:57;100979.63;;;23.78;100.00
9257;BME280;4665;51.368;6.782;2023-06-19T11:05:25;100976.09;;;23.77;100.00
9257;BME280;4665;51.368;6.782;2023-06-19T11:07:55;100973.50;;;23.82;100.00
9257;BME280;4665;51.368;6.782;2023-06-19T11:10:27;100971.56;;;23.94;100.00
9257;BME280;4665;51.368;6.782;2023-06-19T11:12:57;100979.97;;;24.05;100.00
9257;BME280;4665;51.368;6.782;2023-06-19T11:15:33;100963.66;;;24.05;100.00
9257;BME280;4665;51.368;6.782;2023-06-19T11:18:00;100962.56;;;24.06;100.00
9257;BME280;4665;51.368;6.782;2023-06-19T11:20:26;100956.63;;;24.09;100.00
9257;BME280;4665;51.368;6.782;2023-06-19T11:23:00;100960.31;;;24.14;100.00
9257;BME280;4665;51.368;6.782;2023-06-19T11:25:36;100960.53;;;24.13;100.00
9257;BME280;4665;51.368;6.782;2023-06-19T11:28:02;100959.09;;;24.22;100.00
9257;BME280;4665;51.368;6.782;2023-06-19T11:30:32;100954.69;;;24.33;100.00
9257;BME280;4665;51.368;6.782;2023-06-19T11:32:58;100958.91;;;24.41;97.93
9257;BME280;4665;51.368;6.782;2023-06-19T11:35:24;100964.03;;;24.49;97.31
9257;BME280;4665;51.368;6.782;2023-06-19T11:37:51;100957.59;;;24.55;100.00
9257;BME280;4665;51.368;6.782;2023-06-19T11:40:17;100949.69;;;24.53;99.68
9257;BME280;4665;51.368;6.782;2023-06-19T11:42:54;100960.03;;;24.68;97.67
9257;BME280;4665;51.368;6.782;2023-06-19T11:45:23;100957.75;;;24.77;100.00
9257;BME280;4665;51.368;6.782;2023-06-19T11:47:49;100955.59;;;24.79;94.11
9257;BME280;4665;51.368;6.782;2023-06-19T11:53:22;100951.81;;;24.97;79.25
9257;BME280;4665;51.368;6.782;2023-06-19T11:55:55;100945.72;;;25.07;84.38
9257;BME280;4665;51.368;6.782;2023-06-19T11:58:20;100955.31;;;25.09;86.70
9257;BME280;4665;51.368;6.782;2023-06-19T12:00:49;100945.41;;;25.20;86.13
9257;BME280;4665;51.368;6.782;2023-06-19T12:03:30;100950.28;;;25.18;81.76
9257;BME280;4665;51.368;6.782;2023-06-19T12:05:55;100950.44;;;25.11;83.23
9257;BME280;4665;51.368;6.782;2023-06-19T12:08:21;100952.50;;;25.04;83.43
9257;BME280;4665;51.368;6.782;2023-06-19T12:10:48;100943.06;;;24.95;87.46
9257;BME280;4665;51.368;6.782;2023-06-19T12:13:13;100953.25;;;24.99;86.70
9257;BME280;4665;51.368;6.782;2023-06-19T12:15:38;100945.31;;;24.98;81.14
9257;BME280;4665;51.368;6.782;2023-06-19T12:18:04;100952.22;;;25.06;80.11
9257;BME280;4665;51.368;6.782;2023-06-19T12:20:32;100942.94;;;25.18;81.67
9257;BME280;4665;51.368;6.782;2023-06-19T12:22:57;100941.13;;;25.24;86.82
9257;BME280;4665;51.368;6.782;2023-06-19T12:25:23;100944.91;;;25.40;78.64
9257;BME280;4665;51.368;6.782;2023-06-19T12:27:48;100947.88;;;25.38;74.94
9257;BME280;4665;51.368;6.782;2023-06-19T12:30:16;100944.84;;;25.35;78.91
9257;BME280;4665;51.368;6.782;2023-06-19T12:32:42;100947.50;;;25.30;78.92
9257;BME280;4665;51.368;6.782;2023-06-19T12:35:07;100940.81;;;25.21;67.42
9257;BME280;4665;51.368;6.782;2023-06-19T12:37:33;100953.94;;;25.24;71.98
9257;BME280;4665;51.368;6.782;2023-06-19T12:39:58;100951.94;;;25.19;67.64
9257;BME280;4665;51.368;6.782;2023-06-19T12:42:24;100943.16;;;25.17;70.15
9257;BME280;4665;51.368;6.782;2023-06-19T12:44:49;100948.19;;;25.08;72.36
9257;BME280;4665;51.368;6.782;2023-06-19T12:47:15;100954.13;;;25.05;75.74
9257;BME280;4665;51.368;6.782;2023-06-19T12:49:43;100951.34;;;25.00;73.02
9257;BME280;4665;51.368;6.782;2023-06-19T12:52:08;100953.47;;;24.98;74.52
9257;BME280;4665;51.368;6.782;2023-06-19T12:54:34;100959.16;;;24.96;78.16
9257;BME280;4665;51.368;6.782;2023-06-19T12:57:00;100953.47;;;24.98;80.49
9257;BME280;4665;51.368;6.782;2023-06-19T12:59:26;100955.97;;;25.16;77.75
9257;BME280;4665;51.368;6.782;2023-06-19T13:01:53;100963.50;;;25.43;70.35
9257;BME280;4665;51.368;6.782;2023-06-19T13:04:19;100956.41;;;25.42;74.93
9257;BME280;4665;51.368;6.782;2023-06-19T13:06:44;100953.22;;;25.50;68.73
9257;BME280;4665;51.368;6.782;2023-06-19T13:09:10;100945.06;;;25.50;71.60
9257;BME280;4665;51.368;6.782;2023-06-19T13:11:35;100943.56;;;25.59;72.62
9257;BME280;4665;51.368;6.782;2023-06-19T13:14:01;100942.91;;;25.69;75.34
9257;BME280;4665;51.368;6.782;2023-06-19T13:16:29;100936.22;;;25.82;65.53